createdAt,value
2018-12-12T00:00:58.270Z,21.85
2018-12-12T00:04:52.145Z,21.94
2018-12-12T00:07:22.398Z,21.94
2018-12-12T00:09:51.818Z,22.01
2018-12-12T00:12:20.985Z,22.10
2018-12-12T00:14:50.558Z,22.21
2018-12-12T00:17:19.731Z,22.32
2018-12-12T00:19:48.950Z,22.38
2018-12-12T00:22:18.381Z,22.44
2018-12-12T00:24:47.572Z,22.49
2018-12-12T00:27:16.997Z,22.58
2018-12-12T00:29:46.241Z,22.62
2018-12-12T00:32:15.421Z,22.65
2018-12-12T00:34:44.613Z,22.68
2018-12-12T00:37:13.808Z,22.70
2018-12-12T00:39:42.972Z,22.72
2018-12-12T00:42:12.140Z,22.74
2018-12-12T00:44:41.567Z,22.74
2018-12-12T00:49:06.675Z,22.74
2018-12-12T00:51:36.315Z,22.70
2018-12-12T00:54:05.492Z,22.70
2018-12-12T00:56:34.932Z,22.73
2018-12-12T00:59:04.361Z,22.73
2018-12-12T01:06:03.098Z,22.68
2018-12-12T01:08:32.511Z,22.64
2018-12-12T01:11:19.112Z,22.63
2018-12-12T01:13:48.279Z,22.64
2018-12-12T01:16:17.445Z,22.60
2018-12-12T01:18:46.640Z,22.61
2018-12-12T01:21:15.801Z,22.59
2018-12-12T01:23:44.974Z,22.57
2018-12-12T01:26:15.006Z,22.55
2018-12-12T01:28:44.452Z,22.50
2018-12-12T01:31:13.618Z,22.46
2018-12-12T01:33:43.027Z,22.44
2018-12-12T01:36:12.195Z,22.42
2018-12-12T01:38:41.610Z,22.39
2018-12-12T01:41:10.784Z,22.36
2018-12-12T01:43:40.232Z,22.35
2018-12-12T01:46:09.412Z,22.36
2018-12-12T01:48:38.581Z,22.37
2018-12-12T02:00:59.852Z,23.85
2018-12-12T02:03:29.285Z,23.16
2018-12-12T02:05:58.449Z,22.79
2018-12-12T02:08:27.873Z,22.61
2018-12-12T02:10:57.324Z,22.49
2018-12-12T02:13:38.788Z,22.40
2018-12-12T02:16:09.782Z,22.35
2018-12-12T02:18:45.223Z,22.30
2018-12-12T02:21:14.404Z,22.25
2018-12-12T02:23:43.562Z,22.22
2018-12-12T02:26:12.752Z,22.18
2018-12-12T02:28:41.937Z,22.15
2018-12-12T02:31:11.119Z,22.14
2018-12-12T02:33:40.309Z,22.11
2018-12-12T02:36:09.487Z,22.08
2018-12-12T02:38:39.167Z,22.04
2018-12-12T02:41:08.350Z,22.02
2018-12-12T02:43:37.778Z,21.98
2018-12-12T02:46:06.955Z,21.96
2018-12-12T02:48:36.363Z,21.94
2018-12-12T02:51:05.553Z,21.92
2018-12-12T02:53:34.716Z,21.89
2018-12-12T02:56:04.124Z,21.86
2018-12-12T02:58:33.291Z,21.83
2018-12-12T03:01:02.454Z,21.82
2018-12-12T03:03:31.632Z,21.78
2018-12-12T03:06:00.790Z,21.75
2018-12-12T03:08:29.956Z,21.74
2018-12-12T03:10:59.382Z,21.71
2018-12-12T03:13:28.813Z,21.70
2018-12-12T03:15:57.998Z,21.66
2018-12-12T03:18:27.417Z,21.64
2018-12-12T03:20:56.904Z,21.63
2018-12-12T03:23:26.071Z,21.63
2018-12-12T03:25:55.489Z,21.61
2018-12-12T03:28:24.670Z,21.58
2018-12-12T03:30:54.091Z,21.56
2018-12-12T03:33:23.255Z,21.53
2018-12-12T03:35:52.420Z,21.52
2018-12-12T03:38:21.861Z,21.49
2018-12-12T03:40:51.225Z,21.48
2018-12-12T03:43:20.390Z,21.45
2018-12-12T03:45:49.564Z,21.43
2018-12-12T03:48:20.934Z,21.41
2018-12-12T03:50:50.543Z,21.40
2018-12-12T03:53:20.003Z,21.39
2018-12-12T03:55:49.172Z,21.37
2018-12-12T03:58:18.350Z,21.34
2018-12-12T04:00:47.525Z,21.33
2018-12-12T04:03:16.961Z,21.32
2018-12-12T04:05:46.199Z,21.29
2018-12-12T04:08:15.394Z,21.28
2018-12-12T04:10:44.594Z,21.25
2018-12-12T04:13:13.768Z,21.24
2018-12-12T04:15:42.973Z,21.22
2018-12-12T04:18:12.277Z,21.21
2018-12-12T04:20:41.442Z,21.20
2018-12-12T04:23:10.619Z,21.18
2018-12-12T04:25:39.787Z,21.14
2018-12-12T04:28:09.205Z,21.13
2018-12-12T04:30:38.398Z,21.13
2018-12-12T04:33:07.575Z,21.12
2018-12-12T04:35:36.752Z,21.09
2018-12-12T04:38:05.909Z,21.07
2018-12-12T04:40:35.591Z,21.06
2018-12-12T04:43:05.042Z,21.06
2018-12-12T04:45:34.479Z,21.03
2018-12-12T04:48:03.646Z,21.02
2018-12-12T04:50:33.162Z,21.00
2018-12-12T04:53:02.349Z,20.99
2018-12-12T04:55:31.511Z,20.98
2018-12-12T04:58:01.303Z,20.98
2018-12-12T05:00:30.760Z,20.96
2018-12-12T05:03:00.215Z,20.95
2018-12-12T05:05:29.483Z,20.92
2018-12-12T05:07:58.927Z,20.92
2018-12-12T05:10:28.351Z,20.94
2018-12-12T05:12:57.540Z,21.00
2018-12-12T05:15:56.622Z,21.07
2018-12-12T05:18:26.061Z,21.18
2018-12-12T05:20:55.248Z,21.30
2018-12-12T05:23:24.440Z,21.44
2018-12-12T05:25:53.605Z,21.56
2018-12-12T05:28:22.769Z,21.68
2018-12-12T05:30:51.940Z,21.75
2018-12-12T05:33:21.125Z,21.80
2018-12-12T05:35:50.569Z,21.86
2018-12-12T05:38:19.989Z,21.93
2018-12-12T05:40:49.444Z,22.01
2018-12-12T05:43:18.610Z,22.07
2018-12-12T05:45:48.329Z,22.12
2018-12-12T05:48:17.501Z,22.16
2018-12-12T05:50:46.662Z,22.24
2018-12-12T05:53:15.843Z,22.30
2018-12-12T05:55:45.796Z,22.36
2018-12-12T05:58:15.618Z,22.41
2018-12-12T06:00:45.042Z,22.44
2018-12-12T06:03:14.200Z,22.47
2018-12-12T06:05:43.380Z,22.49
2018-12-12T06:08:13.797Z,22.53
2018-12-12T06:10:42.979Z,22.60
2018-12-12T06:13:15.082Z,22.65
2018-12-12T06:15:44.249Z,22.70
2018-12-12T06:18:15.967Z,22.76
2018-12-12T06:20:45.116Z,22.81
2018-12-12T06:23:14.304Z,22.87
2018-12-12T06:25:43.473Z,22.93
2018-12-12T06:28:12.636Z,22.98
2018-12-12T06:30:41.815Z,23.06
2018-12-12T06:33:11.217Z,23.10
2018-12-12T06:35:40.438Z,23.12
2018-12-12T06:38:09.837Z,23.13
2018-12-12T06:40:39.006Z,23.16
2018-12-12T06:43:08.188Z,23.19
2018-12-12T06:45:37.691Z,23.22
2018-12-12T06:48:06.874Z,23.25
2018-12-12T06:50:36.043Z,23.29
2018-12-12T06:53:05.198Z,23.29
2018-12-12T06:55:34.359Z,23.32
2018-12-12T06:58:03.759Z,23.38
2018-12-12T07:00:32.969Z,23.43
2018-12-12T07:03:02.097Z,23.47
2018-12-12T07:05:31.709Z,23.50
2018-12-12T07:08:00.884Z,23.56
2018-12-12T07:10:30.070Z,23.60
2018-12-12T07:12:59.498Z,23.64
2018-12-12T07:15:29.014Z,23.65
2018-12-12T07:17:58.190Z,23.67
2018-12-12T07:20:27.644Z,23.67
2018-12-12T07:22:57.121Z,23.68
2018-12-12T07:25:26.305Z,23.69
2018-12-12T07:27:55.489Z,23.70
2018-12-12T07:30:24.907Z,23.70
2018-12-12T07:32:54.071Z,23.72
2018-12-12T07:35:23.236Z,23.72
2018-12-12T07:37:52.461Z,23.73
2018-12-12T07:40:21.618Z,23.74
2018-12-12T07:42:50.784Z,23.76
2018-12-12T07:45:19.958Z,23.78
2018-12-12T07:47:49.122Z,23.80
2018-12-12T07:50:18.354Z,23.82
2018-12-12T07:52:47.771Z,23.82
2018-12-12T07:55:16.931Z,23.79
2018-12-12T07:57:46.119Z,23.75
2018-12-12T08:00:15.516Z,23.76
2018-12-12T08:02:44.952Z,23.78
2018-12-12T08:05:14.109Z,23.79
2018-12-12T08:07:43.682Z,23.80
2018-12-12T08:10:13.085Z,23.83
2018-12-12T08:12:42.505Z,23.83
2018-12-12T08:15:11.686Z,23.80
2018-12-12T08:17:40.894Z,23.80
2018-12-12T08:20:10.139Z,23.78
2018-12-12T08:22:40.011Z,23.79
2018-12-12T08:25:09.176Z,23.82
2018-12-12T08:27:39.368Z,23.86
2018-12-12T08:30:09.026Z,23.89
2018-12-12T08:32:40.095Z,23.92
2018-12-12T08:35:09.268Z,23.95
2018-12-12T08:37:38.456Z,23.96
2018-12-12T08:40:09.309Z,23.98
2018-12-12T08:42:38.512Z,23.98
2018-12-12T08:45:07.688Z,23.98
2018-12-12T08:47:36.925Z,23.99
2018-12-12T08:50:08.307Z,23.99
2018-12-12T08:52:37.743Z,23.99
2018-12-12T08:55:07.480Z,23.99
2018-12-12T08:57:36.655Z,23.99
2018-12-12T09:00:08.257Z,24.01
2018-12-12T09:02:37.415Z,24.01
2018-12-12T09:05:06.603Z,24.01
2018-12-12T09:07:35.781Z,24.04
2018-12-12T09:10:06.722Z,24.06
2018-12-12T09:12:36.324Z,24.06
2018-12-12T09:15:06.517Z,24.05
2018-12-12T09:17:35.873Z,24.06
2018-12-12T09:20:06.422Z,24.06
2018-12-12T09:22:35.604Z,24.06
2018-12-12T09:25:05.949Z,24.05
2018-12-12T09:27:35.128Z,24.04
2018-12-12T09:30:05.867Z,24.05
2018-12-12T09:32:35.127Z,24.04
2018-12-12T09:35:05.156Z,24.03
2018-12-12T09:37:34.369Z,24.02
2018-12-12T09:40:03.548Z,24.03
2018-12-12T09:42:32.762Z,24.04
2018-12-12T09:45:01.969Z,24.05
2018-12-12T09:47:31.343Z,24.06
2018-12-12T09:50:00.521Z,24.06
2018-12-12T09:52:29.701Z,24.08
2018-12-12T09:54:58.929Z,24.10
2018-12-12T09:57:28.682Z,24.11
2018-12-12T09:59:57.927Z,24.12
2018-12-12T10:02:27.331Z,24.14
2018-12-12T10:04:56.769Z,24.14
2018-12-12T10:07:25.931Z,24.12
2018-12-12T10:09:55.184Z,24.11
2018-12-12T10:12:24.642Z,24.09
2018-12-12T10:14:54.099Z,24.09
2018-12-12T10:17:23.320Z,24.08
2018-12-12T10:19:52.776Z,24.11
2018-12-12T10:22:22.234Z,24.12
2018-12-12T10:24:51.411Z,24.14
2018-12-12T10:27:21.026Z,24.14
2018-12-12T10:29:50.468Z,24.14
2018-12-12T10:32:19.633Z,24.17
2018-12-12T10:34:49.063Z,24.21
2018-12-12T10:37:18.225Z,24.25
2018-12-12T10:39:47.680Z,24.26
2018-12-12T10:42:17.094Z,24.28
2018-12-12T10:44:46.321Z,24.28
2018-12-12T10:47:15.483Z,24.30
2018-12-12T10:49:44.713Z,24.33
2018-12-12T10:52:14.131Z,24.33
2018-12-12T10:54:43.549Z,24.32
2018-12-12T10:57:12.753Z,24.31
2018-12-12T10:59:42.331Z,24.31
2018-12-12T11:02:29.182Z,24.31
2018-12-12T11:04:58.828Z,24.32
2018-12-12T11:07:28.665Z,24.31
2018-12-12T11:09:58.084Z,24.31
2018-12-12T11:12:27.512Z,24.33
2018-12-12T11:14:56.710Z,24.31
2018-12-12T11:17:25.897Z,24.34
2018-12-12T11:19:55.318Z,24.35
2018-12-12T11:22:24.534Z,24.35
2018-12-12T11:24:53.942Z,24.37
2018-12-12T11:27:23.160Z,24.41
2018-12-12T11:29:52.406Z,24.44
2018-12-12T11:32:21.946Z,24.46
2018-12-12T11:34:51.465Z,24.48
2018-12-12T11:37:20.875Z,24.50
2018-12-12T11:39:50.046Z,24.50
2018-12-12T11:42:19.234Z,23.98
2018-12-12T11:44:48.421Z,23.10
2018-12-12T11:47:18.279Z,22.37
2018-12-12T11:49:47.443Z,21.81
2018-12-12T11:52:16.934Z,21.37
2018-12-12T11:54:46.098Z,20.95
2018-12-12T11:57:15.841Z,20.63
2018-12-12T11:59:45.266Z,20.37
2018-12-12T12:02:15.901Z,20.08
2018-12-12T12:04:45.058Z,19.84
2018-12-12T12:07:14.210Z,19.62
2018-12-12T12:09:43.389Z,19.39
2018-12-12T12:12:12.558Z,19.21
2018-12-12T12:14:41.745Z,19.07
2018-12-12T12:17:11.188Z,18.86
2018-12-12T12:19:40.595Z,18.72
2018-12-12T12:22:10.094Z,18.56
2018-12-12T12:24:39.258Z,18.41
